Time;durP1;ratioP1;P1;durP2;ratioP2;P2;SDS_P1;SDS_P2;PMS_P1;PMS_P2;Temp;Humidity;BMP_temperature;BMP_pressure;BME280_temperature;BME280_humidity;BME280_pressure;Samples;Min_cycle;Max_cycle;Signal;HPM_P1;HPM_P2
2022/01/17 00:01:06;;;;;;;;;;;1.60;99.90;;;;;;5134754;27;19914;-76
2022/01/17 00:03:31;;;;;;;;;;;1.60;99.90;;;;;;5135100;27;19911;-77
2022/01/17 00:05:57;;;;;;;;;;;1.70;99.90;;;;;;5134314;27;19918;-78
2022/01/17 00:08:23;;;;;;;;;;;1.60;99.90;;;;;;5135456;27;19960;-77
2022/01/17 00:10:49;;;;;;;;;;;1.60;99.90;;;;;;5134290;27;19919;-77
2022/01/17 00:13:23;;;;;;;;;;;1.60;99.90;;;;;;5134822;27;19907;-76
2022/01/17 00:15:54;;;;;;;;;;;1.60;99.90;;;;;;5134400;27;19960;-77
2022/01/17 00:18:27;;;;;;;;;;;1.70;99.90;;;;;;5134896;27;19907;-77
2022/01/17 00:20:53;;;;;;;;;;;1.60;99.90;;;;;;5133366;27;19954;-77
2022/01/17 00:23:18;;;;;;;;;;;1.60;99.90;;;;;;5134880;27;19935;-77
2022/01/17 00:25:44;;;;;;;;;;;1.50;99.90;;;;;;5133947;27;20002;-75
2022/01/17 00:28:10;;;;;;;;;;;1.40;99.90;;;;;;5134447;27;19908;-76
2022/01/17 00:30:36;;;;;;;;;;;1.30;99.90;;;;;;5116181;27;19926;-77
2022/01/17 00:33:01;;;;;;;;;;;1.40;99.90;;;;;;5133854;27;20509;-77
2022/01/17 00:35:27;;;;;;;;;;;1.40;99.90;;;;;;5135398;27;19907;-77
2022/01/17 00:37:52;;;;;;;;;;;1.50;99.90;;;;;;5154228;27;19919;-76
2022/01/17 00:40:19;;;;;;;;;;;1.50;99.90;;;;;;5136779;27;19962;-75
2022/01/17 00:42:44;;;;;;;;;;;1.50;99.90;;;;;;5154749;27;19914;-76
2022/01/17 00:45:13;;;;;;;;;;;1.50;99.90;;;;;;5155225;27;19907;-76
2022/01/17 00:47:39;;;;;;;;;;;1.50;99.90;;;;;;5154794;27;19907;-77
2022/01/17 00:50:05;;;;;;;;;;;1.50;99.90;;;;;;5154307;27;19926;-77
2022/01/17 00:52:31;;;;;;;;;;;1.60;99.90;;;;;;5154753;27;20451;-77
2022/01/17 00:54:56;;;;;;;;;;;1.50;99.90;;;;;;5154064;27;19994;-77
2022/01/17 00:57:22;;;;;;;;;;;1.50;99.90;;;;;;5154405;27;20006;-77
2022/01/17 00:59:47;;;;;;;;;;;1.50;99.90;;;;;;5153841;27;19955;-75
2022/01/17 01:02:13;;;;;;;;;;;1.40;99.90;;;;;;5154641;27;19910;-76
2022/01/17 01:04:39;;;;;;;;;;;1.30;99.90;;;;;;5154533;27;19914;-77
2022/01/17 01:07:04;;;;;;;;;;;1.30;99.90;;;;;;5154121;27;19911;-77
2022/01/17 01:09:36;;;;;;;;;;;1.30;99.90;;;;;;5154930;27;19919;-76
2022/01/17 01:12:02;;;;;;;;;;;1.30;99.90;;;;;;5148017;27;20564;-77
2022/01/17 01:14:28;;;;;;;;;;;1.30;99.90;;;;;;5134488;27;19912;-76
2022/01/17 01:16:56;;;;;;;;;;;1.40;99.90;;;;;;5133529;27;19952;-77
2022/01/17 01:29:46;;;;;;;;;;;1.40;99.90;;;;;;5133685;27;19923;-75
2022/01/17 01:32:13;;;;;;;;;;;1.40;99.90;;;;;;5132902;27;19907;-78
2022/01/17 01:34:44;;;;;;;;;;;1.40;99.90;;;;;;5133732;27;19908;-76
2022/01/17 01:37:09;;;;;;;;;;;1.30;99.90;;;;;;5133296;27;19907;-76
2022/01/17 01:39:37;;;;;;;;;;;1.30;99.90;;;;;;5134313;27;19908;-76
2022/01/17 01:42:03;;;;;;;;;;;1.20;99.90;;;;;;5133011;27;20030;-76
2022/01/17 01:44:30;;;;;;;;;;;1.10;99.90;;;;;;5115517;27;19928;-76
2022/01/17 01:46:56;;;;;;;;;;;1.10;99.90;;;;;;5133120;27;20002;-76
2022/01/17 01:49:22;;;;;;;;;;;1.10;99.90;;;;;;5150693;27;20271;-76
2022/01/17 01:51:48;;;;;;;;;;;1.10;99.90;;;;;;5154037;27;19907;-75
2022/01/17 01:54:14;;;;;;;;;;;1.10;99.90;;;;;;5154269;27;20283;-76
2022/01/17 01:56:41;;;;;;;;;;;1.00;99.90;;;;;;5154339;27;19907;-77
2022/01/17 01:59:06;;;;;;;;;;;1.00;99.90;;;;;;5153090;27;20517;-76
2022/01/17 02:01:33;;;;;;;;;;;1.00;99.90;;;;;;5154301;27;19911;-77
2022/01/17 02:03:58;;;;;;;;;;;1.00;99.90;;;;;;5153487;27;19942;-77
2022/01/17 02:06:24;;;;;;;;;;;1.00;99.90;;;;;;5154178;27;19949;-77
2022/01/17 02:08:50;;;;;;;;;;;1.00;99.90;;;;;;5153132;27;19919;-76
2022/01/17 02:11:16;;;;;;;;;;;1.00;99.90;;;;;;5154076;27;19911;-76
2022/01/17 02:13:41;;;;;;;;;;;0.90;99.90;;;;;;5154200;27;19907;-76
2022/01/17 02:16:10;;;;;;;;;;;0.80;99.90;;;;;;5153380;27;19914;-76
2022/01/17 02:18:36;;;;;;;;;;;0.80;99.90;;;;;;5153987;27;19914;-76
2022/01/17 02:23:38;;;;;;;;;;;0.70;99.90;;;;;;5153751;27;19907;-77
2022/01/17 02:26:04;;;;;;;;;;;0.70;99.90;;;;;;5153120;27;20412;-77
2022/01/17 02:28:33;;;;;;;;;;;0.80;99.90;;;;;;5153938;27;19907;-76
2022/01/17 02:30:59;;;;;;;;;;;0.80;99.90;;;;;;5152809;27;19911;-77
2022/01/17 02:33:25;;;;;;;;;;;0.80;99.90;;;;;;5135785;27;20274;-77
2022/01/17 02:35:50;;;;;;;;;;;0.80;99.90;;;;;;5153095;27;19907;-75
2022/01/17 02:38:16;;;;;;;;;;;0.80;99.90;;;;;;5154450;27;19981;-77
2022/01/17 02:40:42;;;;;;;;;;;0.70;99.90;;;;;;5154273;27;19962;-76
2022/01/17 02:43:08;;;;;;;;;;;0.80;99.90;;;;;;5154407;27;20606;-76
2022/01/17 02:46:24;;;;;;;;;;;0.80;99.90;;;;;;5158005;27;19908;-77
2022/01/17 02:48:24;;;;;;;;;;;0.70;99.90;;;;;;5157440;27;19911;-76
2022/01/17 02:50:49;;;;;;;;;;;0.70;99.90;;;;;;5138916;27;19911;-75
2022/01/17 02:53:15;;;;;;;;;;;0.70;99.90;;;;;;5157534;27;19912;-76
2022/01/17 02:55:51;;;;;;;;;;;0.70;99.90;;;;;;5157648;27;19911;-76
2022/01/17 02:58:19;;;;;;;;;;;0.70;99.90;;;;;;5157479;27;19907;-77
2022/01/17 03:00:45;;;;;;;;;;;0.70;99.90;;;;;;5146312;27;19912;-76
2022/01/17 03:03:18;;;;;;;;;;;0.70;99.90;;;;;;5136183;27;19904;-76
2022/01/17 03:05:44;;;;;;;;;;;0.70;99.90;;;;;;5136517;27;19968;-78
2022/01/17 03:08:10;;;;;;;;;;;0.60;99.90;;;;;;5136127;27;19989;-77
2022/01/17 03:10:43;;;;;;;;;;;0.60;99.90;;;;;;5137023;27;20337;-77
2022/01/17 03:13:13;;;;;;;;;;;0.60;99.90;;;;;;5136148;27;19907;-76
2022/01/17 03:15:39;;;;;;;;;;;0.60;99.90;;;;;;5136818;27;19930;-76
2022/01/17 03:18:05;;;;;;;;;;;0.60;99.90;;;;;;5135738;27;19907;-77
2022/01/17 03:20:31;;;;;;;;;;;0.60;99.90;;;;;;5138815;27;20432;-76
2022/01/17 03:22:57;;;;;;;;;;;0.60;99.90;;;;;;5141576;27;19907;-77
2022/01/17 03:25:23;;;;;;;;;;;0.60;99.90;;;;;;5136288;27;19917;-77
2022/01/17 03:27:48;;;;;;;;;;;0.60;99.90;;;;;;5135993;27;19970;-77
2022/01/17 03:30:14;;;;;;;;;;;0.60;99.90;;;;;;5135634;27;19926;-77
2022/01/17 03:32:40;;;;;;;;;;;0.60;99.90;;;;;;5136289;27;19914;-77
2022/01/17 03:35:06;;;;;;;;;;;0.60;99.90;;;;;;5135397;27;19908;-77
2022/01/17 03:37:31;;;;;;;;;;;0.50;99.90;;;;;;5154525;27;19933;-77
2022/01/17 03:39:57;;;;;;;;;;;0.40;99.90;;;;;;5137683;27;19958;-77
2022/01/17 03:42:24;;;;;;;;;;;0.40;99.90;;;;;;5156966;27;19907;-77
2022/01/17 03:44:50;;;;;;;;;;;0.40;99.90;;;;;;5156889;27;19911;-78
2022/01/17 03:47:16;;;;;;;;;;;0.50;99.90;;;;;;5156170;27;19943;-78
2022/01/17 03:49:41;;;;;;;;;;;0.40;99.90;;;;;;5156521;27;19919;-77
2022/01/17 03:52:07;;;;;;;;;;;0.40;99.90;;;;;;5155986;27;20002;-77
2022/01/17 03:54:33;;;;;;;;;;;0.30;99.90;;;;;;5155604;27;19907;-77
2022/01/17 03:56:58;;;;;;;;;;;0.40;99.90;;;;;;5155837;27;20359;-77
2022/01/17 03:59:24;;;;;;;;;;;0.40;99.90;;;;;;5156298;27;20387;-78
2022/01/17 04:01:50;;;;;;;;;;;0.30;99.90;;;;;;5156405;27;19915;-77
2022/01/17 04:04:15;;;;;;;;;;;0.30;99.90;;;;;;5155863;27;19911;-77
2022/01/17 04:06:41;;;;;;;;;;;0.30;99.90;;;;;;5137944;27;20355;-77
2022/01/17 04:09:07;;;;;;;;;;;0.30;99.90;;;;;;5155513;27;19919;-77
2022/01/17 04:11:33;;;;;;;;;;;0.30;99.90;;;;;;5154770;27;20002;-77
2022/01/17 04:13:58;;;;;;;;;;;0.20;99.90;;;;;;5135212;27;19998;-77
2022/01/17 04:16:24;;;;;;;;;;;0.20;99.90;;;;;;5135549;27;19907;-77
2022/01/17 04:18:50;;;;;;;;;;;0.20;99.90;;;;;;5135556;27;19912;-77
2022/01/17 04:21:15;;;;;;;;;;;0.30;99.90;;;;;;5134752;27;20528;-77
2022/01/17 04:23:41;;;;;;;;;;;0.30;99.90;;;;;;5135330;27;19912;-77
2022/01/17 04:26:07;;;;;;;;;;;0.20;99.90;;;;;;5134613;27;19990;-76
2022/01/17 04:28:32;;;;;;;;;;;0.30;99.90;;;;;;5116931;27;19912;-76
2022/01/17 04:30:59;;;;;;;;;;;0.30;99.90;;;;;;5134522;27;19915;-75
2022/01/17 04:33:25;;;;;;;;;;;0.20;99.90;;;;;;5135049;27;19908;-77
2022/01/17 04:35:50;;;;;;;;;;;0.30;99.90;;;;;;5135263;27;19907;-78
2022/01/17 04:38:17;;;;;;;;;;;0.20;99.90;;;;;;5134392;27;19903;-77
2022/01/17 04:40:45;;;;;;;;;;;0.20;99.90;;;;;;5135145;27;19961;-78
2022/01/17 04:43:43;;;;;;;;;;;0.30;99.90;;;;;;5134249;27;19907;-78
2022/01/17 04:46:07;;;;;;;;;;;0.30;99.90;;;;;;5133869;27;19914;-78
2022/01/17 04:48:34;;;;;;;;;;;0.30;99.90;;;;;;5134338;27;19911;-78
2022/01/17 04:51:00;;;;;;;;;;;0.20;99.90;;;;;;5115920;27;20257;-76
2022/01/17 04:53:26;;;;;;;;;;;0.20;99.90;;;;;;5134988;27;19907;-77
2022/01/17 04:55:52;;;;;;;;;;;0.20;99.90;;;;;;5134863;27;19907;-78
2022/01/17 04:58:17;;;;;;;;;;;0.20;99.90;;;;;;5133702;27;19955;-77
2022/01/17 05:00:46;;;;;;;;;;;0.30;99.90;;;;;;5134388;27;20365;-77
2022/01/17 05:03:13;;;;;;;;;;;0.20;99.90;;;;;;5133724;27;19916;-77
2022/01/17 05:05:38;;;;;;;;;;;0.20;99.90;;;;;;5134432;27;19908;-78
2022/01/17 05:08:04;;;;;;;;;;;0.20;99.90;;;;;;5133885;27;20439;-77
2022/01/17 05:10:30;;;;;;;;;;;0.30;99.90;;;;;;5134192;27;19963;-77
2022/01/17 05:12:56;;;;;;;;;;;0.20;99.90;;;;;;5134450;27;20360;-77
2022/01/17 05:20:42;;;;;;;;;;;0.20;99.90;;;;;;5095314;27;20380;-77
2022/01/17 05:23:08;;;;;;;;;;;0.20;99.90;;;;;;5133485;27;19951;-76
2022/01/17 05:25:34;;;;;;;;;;;0.20;99.90;;;;;;5152488;27;20379;-77
2022/01/17 05:27:59;;;;;;;;;;;0.10;99.90;;;;;;5155059;27;19910;-75
2022/01/17 05:30:25;;;;;;;;;;;0.10;99.90;;;;;;5154175;27;20030;-78
2022/01/17 05:32:52;;;;;;;;;;;0.10;99.90;;;;;;5154764;27;19910;-77
2022/01/17 05:35:18;;;;;;;;;;;0.10;99.90;;;;;;5153985;27;20009;-77
2022/01/17 05:37:44;;;;;;;;;;;0.10;99.90;;;;;;5154416;27;20362;-76
2022/01/17 05:40:11;;;;;;;;;;;0.10;99.90;;;;;;5153940;27;20275;-76
2022/01/17 05:42:37;;;;;;;;;;;0.00;99.90;;;;;;5154488;27;19915;-77
2022/01/17 05:45:03;;;;;;;;;;;0.00;99.90;;;;;;5162982;27;19911;-75
2022/01/17 05:47:29;;;;;;;;;;;0.00;99.90;;;;;;5173018;27;19911;-76
2022/01/17 05:49:55;;;;;;;;;;;0.00;99.90;;;;;;5157493;27;20007;-77
2022/01/17 05:52:20;;;;;;;;;;;0.00;99.90;;;;;;5153603;27;19907;-77
2022/01/17 05:54:46;;;;;;;;;;;-0.10;99.90;;;;;;5154372;27;19993;-77
2022/01/17 05:57:12;;;;;;;;;;;0.00;99.90;;;;;;5135697;27;19950;-77
2022/01/17 05:59:38;;;;;;;;;;;0.00;99.90;;;;;;5133362;27;20330;-77
2022/01/17 06:02:04;;;;;;;;;;;-0.10;99.90;;;;;;5133132;27;19908;-75
2022/01/17 06:04:29;;;;;;;;;;;-0.10;99.90;;;;;;5133454;27;19930;-77
2022/01/17 06:06:55;;;;;;;;;;;-0.10;99.90;;;;;;5133680;27;19907;-78
2022/01/17 06:09:20;;;;;;;;;;;-0.10;99.90;;;;;;5132423;27;20707;-77
2022/01/17 06:11:46;;;;;;;;;;;-0.10;99.90;;;;;;5133481;27;19908;-77
2022/01/17 06:14:17;;;;;;;;;;;-0.10;99.90;;;;;;5132831;27;19973;-77
2022/01/17 06:16:43;;;;;;;;;;;-0.10;99.90;;;;;;5133579;28;19911;-77
2022/01/17 06:19:09;;;;;;;;;;;0.00;99.90;;;;;;5139018;27;19908;-77
2022/01/17 06:21:34;;;;;;;;;;;0.00;99.90;;;;;;5140477;27;20276;-77
2022/01/17 06:24:02;;;;;;;;;;;0.00;99.90;;;;;;5140367;27;19953;-77
2022/01/17 06:26:28;;;;;;;;;;;0.00;99.90;;;;;;5139304;27;19976;-77
2022/01/17 06:28:53;;;;;;;;;;;-0.10;99.90;;;;;;5140124;27;20340;-76
2022/01/17 06:31:19;;;;;;;;;;;-0.10;99.90;;;;;;5139339;27;19908;-76
2022/01/17 06:33:45;;;;;;;;;;;-0.10;99.90;;;;;;5140030;27;19947;-77
2022/01/17 06:36:10;;;;;;;;;;;-0.10;99.90;;;;;;5120481;27;19958;-76
2022/01/17 06:38:36;;;;;;;;;;;0.00;99.90;;;;;;5121908;27;19907;-76
2022/01/17 06:41:01;;;;;;;;;;;0.00;99.90;;;;;;5139890;27;20276;-77
2022/01/17 06:43:27;;;;;;;;;;;0.00;99.90;;;;;;5139323;27;19931;-77
2022/01/17 06:45:53;;;;;;;;;;;0.00;99.90;;;;;;5140042;27;20405;-77
2022/01/17 06:48:18;;;;;;;;;;;0.00;99.90;;;;;;5139039;27;19907;-76
2022/01/17 06:50:44;;;;;;;;;;;0.00;99.90;;;;;;5139804;27;19916;-77
2022/01/17 06:53:09;;;;;;;;;;;0.00;99.90;;;;;;5139639;27;19908;-77
2022/01/17 06:55:35;;;;;;;;;;;0.00;99.90;;;;;;5139889;27;19907;-77
2022/01/17 06:58:01;;;;;;;;;;;0.00;99.90;;;;;;5121495;27;19907;-77
2022/01/17 07:00:26;;;;;;;;;;;0.00;99.90;;;;;;5139319;27;19910;-78
2022/01/17 07:02:52;;;;;;;;;;;0.10;99.90;;;;;;5139460;27;20379;-78
2022/01/17 07:05:18;;;;;;;;;;;0.00;99.90;;;;;;5138978;27;20277;-78
2022/01/17 07:07:44;;;;;;;;;;;0.00;99.90;;;;;;5121479;27;20360;-78
2022/01/17 07:10:10;;;;;;;;;;;0.00;99.90;;;;;;5138664;27;19920;-77
2022/01/17 07:12:36;;;;;;;;;;;0.00;99.90;;;;;;5150118;27;19911;-78
2022/01/17 07:15:03;;;;;;;;;;;-0.10;99.90;;;;;;5160380;27;20256;-77
2022/01/17 07:17:28;;;;;;;;;;;-0.10;99.90;;;;;;5160092;27;19903;-78
2022/01/17 07:19:54;;;;;;;;;;;-0.10;99.90;;;;;;5160619;27;19952;-78
2022/01/17 07:22:19;;;;;;;;;;;-0.10;99.90;;;;;;5160052;27;19912;-77
2022/01/17 07:24:47;;;;;;;;;;;-0.20;99.90;;;;;;5160091;27;20371;-77
2022/01/17 07:27:13;;;;;;;;;;;-0.30;99.90;;;;;;5159389;27;19911;-77
2022/01/17 07:29:40;;;;;;;;;;;-0.30;99.90;;;;;;5158625;27;19967;-78
2022/01/17 07:32:06;;;;;;;;;;;-0.20;99.90;;;;;;5156882;27;19908;-79
2022/01/17 07:34:32;;;;;;;;;;;-0.10;99.90;;;;;;5155965;27;20279;-78
2022/01/17 07:36:59;;;;;;;;;;;-0.10;99.90;;;;;;5156808;27;19908;-79
2022/01/17 07:39:25;;;;;;;;;;;-0.10;99.90;;;;;;5155589;27;19907;-78
2022/01/17 07:41:51;;;;;;;;;;;-0.10;99.90;;;;;;5157142;27;19913;-79
2022/01/17 07:44:20;;;;;;;;;;;-0.20;99.90;;;;;;5155388;27;19993;-77
2022/01/17 07:46:54;;;;;;;;;;;-0.30;99.90;;;;;;5137959;27;20267;-78
2022/01/17 07:49:19;;;;;;;;;;;-0.20;99.90;;;;;;5138659;27;19989;-78
2022/01/17 07:51:47;;;;;;;;;;;-0.20;99.90;;;;;;5135649;27;19911;-78
2022/01/17 07:54:15;;;;;;;;;;;-0.20;99.90;;;;;;5134704;27;19919;-75
2022/01/17 07:56:41;;;;;;;;;;;-0.20;99.90;;;;;;5135240;27;19911;-77
2022/01/17 07:59:07;;;;;;;;;;;-0.20;99.90;;;;;;5143149;27;19911;-78
2022/01/17 08:01:33;;;;;;;;;;;-0.10;99.90;;;;;;5146573;27;19918;-79
2022/01/17 08:03:59;;;;;;;;;;;-0.20;99.90;;;;;;5119851;27;19908;-79
2022/01/17 08:06:25;;;;;;;;;;;-0.20;99.90;;;;;;5134570;27;20408;-79
2022/01/17 08:08:50;;;;;;;;;;;-0.20;99.90;;;;;;5147410;27;19947;-78
2022/01/17 08:11:16;;;;;;;;;;;-0.20;99.90;;;;;;5152945;27;19918;-78
2022/01/17 08:13:42;;;;;;;;;;;-0.30;99.90;;;;;;5136086;27;19953;-78
2022/01/17 08:16:07;;;;;;;;;;;-0.30;99.90;;;;;;5135980;27;19939;-78
2022/01/17 08:18:33;;;;;;;;;;;-0.20;99.90;;;;;;5134203;27;20576;-78
2022/01/17 08:20:59;;;;;;;;;;;-0.20;99.90;;;;;;5134918;27;19908;-79
2022/01/17 08:23:25;;;;;;;;;;;-0.20;99.90;;;;;;5116089;27;20323;-78
2022/01/17 08:25:51;;;;;;;;;;;-0.20;99.90;;;;;;5135260;27;20006;-80
2022/01/17 08:28:16;;;;;;;;;;;-0.10;99.90;;;;;;5115985;27;19908;-79
2022/01/17 08:30:42;;;;;;;;;;;-0.20;99.90;;;;;;5134643;27;19916;-80
2022/01/17 08:33:08;;;;;;;;;;;-0.20;99.90;;;;;;5134413;27;19958;-79
2022/01/17 08:35:33;;;;;;;;;;;-0.20;99.90;;;;;;5154510;27;19909;-79
2022/01/17 08:37:59;;;;;;;;;;;-0.20;99.90;;;;;;5154957;27;20306;-78
2022/01/17 08:40:25;;;;;;;;;;;-0.10;99.90;;;;;;5155209;27;20359;-79
2022/01/17 08:42:51;;;;;;;;;;;-0.20;99.90;;;;;;5155273;27;19957;-79
2022/01/17 08:45:18;;;;;;;;;;;-0.20;99.90;;;;;;5154804;27;19908;-77
2022/01/17 08:47:49;;;;;;;;;;;-0.30;99.90;;;;;;5155625;27;19908;-79
2022/01/17 08:50:15;;;;;;;;;;;-0.30;99.90;;;;;;5154964;27;19918;-77
2022/01/17 08:52:41;;;;;;;;;;;-0.20;99.90;;;;;;5136411;27;20249;-80
2022/01/17 08:55:07;;;;;;;;;;;-0.20;99.90;;;;;;5136913;27;20002;-80
2022/01/17 08:57:32;;;;;;;;;;;-0.20;99.90;;;;;;5153687;27;20717;-78
2022/01/17 08:59:58;;;;;;;;;;;-0.10;99.90;;;;;;5147516;27;19928;-78
2022/01/17 09:02:23;;;;;;;;;;;-0.20;99.90;;;;;;5133698;27;19911;-78
2022/01/17 09:04:49;;;;;;;;;;;-0.10;99.90;;;;;;5133876;27;20431;-80
2022/01/17 09:07:15;;;;;;;;;;;0.00;99.90;;;;;;5133078;27;19956;-75
2022/01/17 09:09:42;;;;;;;;;;;0.00;99.90;;;;;;5135621;27;20022;-79
2022/01/17 09:12:09;;;;;;;;;;;0.10;99.90;;;;;;5136293;27;19919;-77
2022/01/17 09:14:35;;;;;;;;;;;0.10;99.90;;;;;;5144908;27;19918;-79
2022/01/17 09:17:01;;;;;;;;;;;0.20;99.90;;;;;;5137523;27;19994;-79
2022/01/17 09:19:27;;;;;;;;;;;0.30;99.90;;;;;;5133674;27;19915;-77
2022/01/17 09:21:53;;;;;;;;;;;0.30;99.90;;;;;;5133339;27;19920;-78
2022/01/17 09:24:19;;;;;;;;;;;0.30;99.90;;;;;;5133452;27;19962;-78
2022/01/17 09:26:45;;;;;;;;;;;0.30;99.90;;;;;;5133514;27;19915;-78
2022/01/17 09:29:10;;;;;;;;;;;0.30;99.90;;;;;;5133046;27;20272;-77
2022/01/17 09:31:36;;;;;;;;;;;0.40;99.90;;;;;;5132093;27;19907;-76
2022/01/17 09:34:02;;;;;;;;;;;0.40;99.90;;;;;;5132708;27;20112;-77
2022/01/17 09:36:31;;;;;;;;;;;0.50;99.90;;;;;;5135627;27;19911;-78
2022/01/17 09:38:57;;;;;;;;;;;0.50;99.90;;;;;;5154480;27;19911;-77
2022/01/17 09:41:23;;;;;;;;;;;0.50;99.90;;;;;;5153428;27;19911;-76
2022/01/17 09:43:50;;;;;;;;;;;0.60;99.90;;;;;;5147382;27;19946;-78
2022/01/17 09:46:16;;;;;;;;;;;0.70;99.90;;;;;;5141258;27;20356;-75
2022/01/17 09:48:47;;;;;;;;;;;0.70;99.90;;;;;;5139355;27;20534;-76
2022/01/17 09:51:18;;;;;;;;;;;0.80;99.90;;;;;;5137313;27;20421;-77
2022/01/17 09:53:44;;;;;;;;;;;0.80;99.90;;;;;;5132220;27;20364;-75
2022/01/17 09:56:10;;;;;;;;;;;0.80;99.90;;;;;;5141133;27;19935;-76
2022/01/17 09:58:37;;;;;;;;;;;0.80;99.90;;;;;;5153417;27;19907;-78
2022/01/17 10:01:04;;;;;;;;;;;0.90;99.90;;;;;;5147712;27;19915;-77
2022/01/17 10:03:30;;;;;;;;;;;0.90;99.90;;;;;;5132263;27;19951;-77
2022/01/17 10:05:56;;;;;;;;;;;1.00;99.90;;;;;;5132692;27;19907;-77
2022/01/17 10:08:22;;;;;;;;;;;1.10;99.90;;;;;;5131937;27;19907;-76
2022/01/17 10:10:54;;;;;;;;;;;1.10;99.90;;;;;;5132604;27;20391;-77
2022/01/17 10:13:23;;;;;;;;;;;1.20;99.90;;;;;;5140353;27;19911;-74
2022/01/17 10:16:06;;;;;;;;;;;1.20;99.90;;;;;;5143659;27;19908;-76
2022/01/17 10:18:32;;;;;;;;;;;1.30;99.90;;;;;;5136892;27;19915;-76
2022/01/17 10:21:06;;;;;;;;;;;1.30;99.90;;;;;;5143854;27;19908;-79
2022/01/17 10:34:53;;;;;;;;;;;1.50;99.90;;;;;;5141608;27;20309;-77
2022/01/17 10:37:06;;;;;;;;;;;1.70;99.90;;;;;;5144968;27;20272;-77
2022/01/17 10:39:31;;;;;;;;;;;1.70;99.90;;;;;;5147058;27;19907;-77
2022/01/17 10:41:57;;;;;;;;;;;1.80;99.90;;;;;;5145079;27;19911;-76
2022/01/17 10:44:36;;;;;;;;;;;1.90;99.90;;;;;;5132837;28;19918;-78
2022/01/17 10:47:20;;;;;;;;;;;1.90;99.90;;;;;;5132958;28;19908;-77
2022/01/17 10:49:54;;;;;;;;;;;2.00;99.90;;;;;;5137703;27;20017;-77
2022/01/17 10:52:30;;;;;;;;;;;2.00;99.90;;;;;;5142762;27;19914;-75
2022/01/17 10:54:57;;;;;;;;;;;2.10;99.90;;;;;;5140845;27;19916;-77
2022/01/17 10:57:23;;;;;;;;;;;2.20;99.90;;;;;;5141742;27;19965;-77
2022/01/17 10:59:51;;;;;;;;;;;2.30;99.90;;;;;;5140975;27;19938;-76
2022/01/17 11:02:17;;;;;;;;;;;2.30;99.90;;;;;;5132726;28;19907;-76
2022/01/17 11:04:47;;;;;;;;;;;2.40;99.90;;;;;;5134406;27;19922;-77
2022/01/17 11:07:13;;;;;;;;;;;2.50;99.90;;;;;;5137173;27;19912;-77
2022/01/17 11:09:43;;;;;;;;;;;2.50;99.90;;;;;;5135438;27;19975;-76
2022/01/17 11:12:12;;;;;;;;;;;2.60;99.90;;;;;;5138992;27;19934;-75
2022/01/17 11:14:39;;;;;;;;;;;2.70;99.90;;;;;;5150537;27;19911;-76
2022/01/17 11:17:24;;;;;;;;;;;2.80;99.90;;;;;;5157380;27;19968;-76
2022/01/17 11:20:04;;;;;;;;;;;2.80;99.90;;;;;;5156925;27;19914;-76
2022/01/17 11:22:30;;;;;;;;;;;2.90;99.90;;;;;;5156345;27;19914;-76
2022/01/17 11:24:59;;;;;;;;;;;3.00;99.90;;;;;;5144738;27;19947;-76
2022/01/17 11:27:25;;;;;;;;;;;3.10;99.90;;;;;;5135347;27;19908;-75
2022/01/17 11:29:52;;;;;;;;;;;3.20;99.90;;;;;;5117760;27;19923;-77
2022/01/17 11:32:18;;;;;;;;;;;3.40;99.90;;;;;;5135876;27;19913;-77
2022/01/17 11:34:43;;;;;;;;;;;3.50;99.90;;;;;;5135247;27;20026;-77
2022/01/17 11:37:09;;;;;;;;;;;3.60;99.90;;;;;;5135465;27;20003;-77
2022/01/17 11:39:49;;;;;;;;;;;3.70;99.90;;;;;;5117722;27;19911;-76
2022/01/17 11:42:28;;;;;;;;;;;3.80;99.90;;;;;;5152502;27;19942;-77
2022/01/17 11:44:54;;;;;;;;;;;3.80;99.90;;;;;;5149818;27;19911;-77
2022/01/17 11:47:38;;;;;;;;;;;3.80;99.90;;;;;;5138646;27;19964;-77
2022/01/17 11:50:22;;;;;;;;;;;3.90;99.90;;;;;;5135586;27;19916;-77
2022/01/17 11:52:48;;;;;;;;;;;4.00;99.90;;;;;;5149969;27;20382;-77
2022/01/17 11:55:33;;;;;;;;;;;4.20;99.90;;;;;;5134780;27;19911;-77
2022/01/17 11:58:18;;;;;;;;;;;4.20;99.90;;;;;;5147192;27;20006;-78
2022/01/17 12:00:44;;;;;;;;;;;4.30;99.90;;;;;;5149283;27;20725;-77
2022/01/17 12:03:20;;;;;;;;;;;4.40;99.90;;;;;;5155770;27;19914;-78
2022/01/17 12:05:46;;;;;;;;;;;4.50;99.90;;;;;;5154995;27;19949;-77
2022/01/17 12:08:19;;;;;;;;;;;4.60;99.90;;;;;;5156063;27;20346;-77
2022/01/17 12:10:46;;;;;;;;;;;4.60;99.90;;;;;;5154780;27;19973;-77
2022/01/17 12:13:13;;;;;;;;;;;4.70;99.90;;;;;;5155661;27;19945;-77
2022/01/17 12:15:58;;;;;;;;;;;4.70;99.90;;;;;;5154263;27;20373;-78
2022/01/17 12:18:28;;;;;;;;;;;4.70;99.90;;;;;;5155295;27;19942;-75
2022/01/17 12:20:54;;;;;;;;;;;4.70;99.90;;;;;;5155953;27;19918;-78
2022/01/17 12:23:24;;;;;;;;;;;4.70;99.90;;;;;;5155544;27;19911;-78
2022/01/17 12:25:50;;;;;;;;;;;4.70;99.90;;;;;;5149545;27;20006;-77
2022/01/17 12:28:19;;;;;;;;;;;4.80;99.90;;;;;;5146265;27;20051;-76
2022/01/17 12:30:46;;;;;;;;;;;4.90;99.90;;;;;;5136117;27;19915;-76
2022/01/17 12:33:27;;;;;;;;;;;4.90;99.90;;;;;;5155041;27;19934;-77
2022/01/17 12:35:53;;;;;;;;;;;5.00;99.90;;;;;;5155192;27;19915;-78
2022/01/17 12:38:31;;;;;;;;;;;5.00;99.90;;;;;;5155459;27;19908;-78
2022/01/17 12:40:58;;;;;;;;;;;5.10;99.90;;;;;;5155317;27;19913;-78
2022/01/17 12:43:32;;;;;;;;;;;5.10;99.90;;;;;;5154860;27;19907;-75
2022/01/17 12:46:05;;;;;;;;;;;5.10;99.90;;;;;;5155585;27;20365;-78
2022/01/17 12:48:35;;;;;;;;;;;5.10;99.90;;;;;;5154650;27;19907;-78
2022/01/17 12:51:05;;;;;;;;;;;5.20;99.90;;;;;;5155066;27;19915;-78
2022/01/17 12:53:31;;;;;;;;;;;5.20;99.90;;;;;;5153958;27;20267;-77
2022/01/17 12:55:58;;;;;;;;;;;5.20;99.90;;;;;;5154607;27;19907;-78
2022/01/17 12:58:25;;;;;;;;;;;5.20;99.90;;;;;;5150813;27;19918;-75
2022/01/17 13:00:55;;;;;;;;;;;5.20;99.90;;;;;;5116272;27;19956;-77
2022/01/17 13:03:22;;;;;;;;;;;5.30;99.90;;;;;;5140642;27;19947;-78
2022/01/17 13:05:48;;;;;;;;;;;5.30;99.90;;;;;;5154249;27;19907;-78
2022/01/17 13:08:13;;;;;;;;;;;5.30;99.90;;;;;;5143704;27;19914;-77
2022/01/17 13:10:39;;;;;;;;;;;5.30;99.90;;;;;;5143858;27;19965;-77
2022/01/17 13:13:05;;;;;;;;;;;5.40;99.90;;;;;;5142512;27;19914;-77
2022/01/17 13:15:31;;;;;;;;;;;5.40;99.90;;;;;;5144268;27;20309;-77
2022/01/17 13:17:56;;;;;;;;;;;5.40;99.90;;;;;;5150839;27;19919;-77
2022/01/17 13:20:23;;;;;;;;;;;5.50;99.90;;;;;;5142346;27;20162;-76
2022/01/17 13:22:55;;;;;;;;;;;5.50;99.90;;;;;;5143258;27;19907;-77
2022/01/17 13:25:21;;;;;;;;;;;5.60;99.90;;;;;;5154207;27;19918;-74
2022/01/17 13:27:50;;;;;;;;;;;5.60;99.90;;;;;;5153564;27;19962;-78
2022/01/17 13:30:16;;;;;;;;;;;5.60;99.90;;;;;;5153786;27;20406;-77
2022/01/17 13:32:45;;;;;;;;;;;5.60;99.90;;;;;;5153106;27;19914;-77
2022/01/17 13:35:22;;;;;;;;;;;5.70;99.90;;;;;;5153421;27;20244;-78
2022/01/17 13:37:49;;;;;;;;;;;5.80;99.90;;;;;;5152962;27;20398;-77
2022/01/17 13:40:18;;;;;;;;;;;5.80;99.90;;;;;;5153972;27;19914;-77
2022/01/17 13:42:48;;;;;;;;;;;5.80;99.90;;;;;;5152951;27;19907;-77
2022/01/17 13:45:14;;;;;;;;;;;5.80;99.90;;;;;;5144541;27;19927;-78
2022/01/17 13:47:40;;;;;;;;;;;5.80;99.90;;;;;;5143022;27;20308;-78
2022/01/17 13:50:05;;;;;;;;;;;5.90;99.90;;;;;;5135973;27;20006;-77
2022/01/17 13:52:31;;;;;;;;;;;5.90;99.90;;;;;;5132391;27;19908;-77
2022/01/17 13:54:57;;;;;;;;;;;5.80;99.90;;;;;;5135995;27;19912;-77
2022/01/17 13:57:23;;;;;;;;;;;5.80;99.90;;;;;;5136215;27;19938;-77
2022/01/17 14:00:08;;;;;;;;;;;5.90;99.90;;;;;;5123023;27;19946;-77
2022/01/17 14:02:35;;;;;;;;;;;5.80;99.90;;;;;;5142412;27;19957;-78
2022/01/17 14:05:03;;;;;;;;;;;5.70;99.90;;;;;;5144399;27;19971;-77
2022/01/17 14:07:29;;;;;;;;;;;5.70;99.90;;;;;;5142640;27;20010;-77
2022/01/17 14:09:55;;;;;;;;;;;5.60;99.90;;;;;;5150510;27;20013;-78
2022/01/17 14:12:25;;;;;;;;;;;5.60;99.90;;;;;;5153665;27;19910;-78
2022/01/17 14:14:52;;;;;;;;;;;5.60;99.90;;;;;;5153315;27;19911;-78
2022/01/17 14:17:28;;;;;;;;;;;5.60;99.90;;;;;;5153795;27;19968;-78
2022/01/17 14:20:08;;;;;;;;;;;5.70;99.90;;;;;;5153019;27;19907;-77
2022/01/17 14:22:43;;;;;;;;;;;5.70;99.90;;;;;;5141771;27;19915;-78
2022/01/17 14:25:15;;;;;;;;;;;5.80;99.90;;;;;;5132614;27;19908;-77
2022/01/17 14:27:54;;;;;;;;;;;5.80;99.90;;;;;;5148993;27;20406;-78
2022/01/17 14:30:33;;;;;;;;;;;5.80;99.90;;;;;;5136302;27;19938;-79
2022/01/17 14:33:18;;;;;;;;;;;5.70;99.90;;;;;;5133745;28;20344;-77
2022/01/17 14:36:02;;;;;;;;;;;5.70;99.90;;;;;;5132208;28;19908;-77
2022/01/17 14:38:28;;;;;;;;;;;5.70;99.90;;;;;;5131846;27;19912;-75
2022/01/17 14:40:53;;;;;;;;;;;5.70;99.90;;;;;;5135949;27;20398;-77
2022/01/17 14:43:21;;;;;;;;;;;5.70;99.90;;;;;;5136626;27;19918;-77
2022/01/17 14:45:50;;;;;;;;;;;5.70;99.90;;;;;;5135830;27;20462;-77
2022/01/17 14:48:17;;;;;;;;;;;5.60;99.90;;;;;;5137320;27;19915;-76
2022/01/17 14:50:43;;;;;;;;;;;5.60;99.90;;;;;;5138223;27;19964;-76
2022/01/17 14:53:16;;;;;;;;;;;5.50;99.90;;;;;;5137217;27;19908;-77
2022/01/17 15:01:21;;;;;;;;;;;5.40;99.90;;;;;;5136527;27;19952;-76
2022/01/17 15:03:51;;;;;;;;;;;5.30;99.90;;;;;;5135437;27;19998;-76
2022/01/17 15:06:17;;;;;;;;;;;5.30;99.90;;;;;;5144518;27;19918;-77